createdAt,value
2017-12-31T00:00:57.091Z,97.41
2017-12-31T00:01:57.078Z,97.31
2017-12-31T00:03:18.071Z,96.84
2017-12-31T00:03:57.056Z,97.41
2017-12-31T00:04:57.045Z,96.65
2017-12-31T00:05:57.039Z,96.65
2017-12-31T00:06:57.026Z,96.65
2017-12-31T00:07:57.023Z,96.74
2017-12-31T00:09:18.011Z,96.65
2017-12-31T00:09:56.988Z,96.45
2017-12-31T00:10:56.983Z,96.45
2017-12-31T00:11:56.965Z,96.45
2017-12-31T00:12:56.963Z,96.65
2017-12-31T00:13:56.944Z,95.70
2017-12-31T00:15:17.941Z,96.17
2017-12-31T00:15:56.923Z,96.03
2017-12-31T00:16:56.914Z,96.31
2017-12-31T00:17:56.905Z,96.31
2017-12-31T00:18:56.892Z,96.31
2017-12-31T00:19:56.875Z,96.31
2017-12-31T00:21:17.898Z,95.75
2017-12-31T00:21:56.862Z,95.79
2017-12-31T00:22:56.847Z,95.41
2017-12-31T00:23:56.838Z,96.17
2017-12-31T00:24:56.822Z,95.89
2017-12-31T00:25:56.842Z,95.60
2017-12-31T00:27:17.806Z,95.79
2017-12-31T00:27:56.788Z,95.51
2017-12-31T00:28:56.794Z,95.41
2017-12-31T00:29:56.769Z,95.22
2017-12-31T00:30:56.756Z,95.32
2017-12-31T00:31:56.750Z,95.60
2017-12-31T00:33:17.756Z,95.41
2017-12-31T00:33:56.734Z,95.51
2017-12-31T00:34:56.717Z,95.41
2017-12-31T00:35:56.703Z,94.84
2017-12-31T00:36:56.691Z,95.12
2017-12-31T00:37:56.679Z,94.93
2017-12-31T00:39:17.674Z,94.84
2017-12-31T00:39:56.750Z,95.22
2017-12-31T00:40:56.658Z,95.12
2017-12-31T00:41:56.631Z,95.22
2017-12-31T00:42:56.621Z,94.84
2017-12-31T00:43:56.614Z,95.03
2017-12-31T00:45:17.608Z,95.12
2017-12-31T00:45:56.589Z,95.12
2017-12-31T00:46:56.578Z,95.12
2017-12-31T00:47:56.572Z,95.22
2017-12-31T00:48:56.556Z,95.22
2017-12-31T00:49:56.563Z,95.22
2017-12-31T00:51:17.539Z,94.93
2017-12-31T00:51:56.520Z,95.12
2017-12-31T00:52:56.510Z,94.84
2017-12-31T00:53:56.507Z,95.41
2017-12-31T00:54:56.492Z,94.56
2017-12-31T00:55:56.498Z,94.65
2017-12-31T00:57:17.503Z,94.74
2017-12-31T00:57:56.457Z,94.65
2017-12-31T00:58:56.446Z,94.65
2017-12-31T00:59:56.451Z,94.18
2017-12-31T01:00:56.421Z,94.65
2017-12-31T01:01:56.408Z,94.65
2017-12-31T01:03:17.408Z,94.46
2017-12-31T01:03:56.396Z,94.84
2017-12-31T01:04:56.433Z,94.74
2017-12-31T01:05:56.368Z,94.56
2017-12-31T01:06:56.385Z,93.89
2017-12-31T01:07:56.347Z,93.99
2017-12-31T01:09:17.334Z,93.60
2017-12-31T01:09:56.328Z,93.99
2017-12-31T01:10:56.312Z,93.60
2017-12-31T01:11:56.294Z,93.51
2017-12-31T01:12:56.308Z,94.18
2017-12-31T01:13:56.282Z,94.08
2017-12-31T01:15:17.269Z,93.99
2017-12-31T01:15:56.254Z,93.89
2017-12-31T01:16:56.243Z,93.89
2017-12-31T01:17:56.233Z,93.89
2017-12-31T01:18:56.225Z,93.99
2017-12-31T01:19:56.252Z,93.79
2017-12-31T01:21:17.204Z,93.13
2017-12-31T01:21:56.187Z,93.70
2017-12-31T01:22:56.193Z,93.04
2017-12-31T01:23:56.179Z,92.75
2017-12-31T01:24:56.152Z,92.85
2017-12-31T01:25:56.144Z,93.04
2017-12-31T01:27:17.154Z,92.85
2017-12-31T01:27:56.149Z,93.51
2017-12-31T01:28:56.105Z,92.85
2017-12-31T01:29:56.122Z,93.32
2017-12-31T01:30:56.091Z,92.75
2017-12-31T01:31:56.076Z,93.04
2017-12-31T01:33:17.094Z,93.04
2017-12-31T01:33:56.055Z,93.23
2017-12-31T01:34:56.054Z,92.85
2017-12-31T01:35:56.036Z,92.85
2017-12-31T01:36:56.019Z,92.66
2017-12-31T01:37:56.024Z,92.75
2017-12-31T01:39:17.000Z,92.75
2017-12-31T01:39:55.990Z,92.85
2017-12-31T01:40:55.980Z,92.94
2017-12-31T01:41:55.987Z,92.94
2017-12-31T01:42:55.953Z,92.85
2017-12-31T01:43:55.960Z,92.66
2017-12-31T01:45:16.933Z,92.75
2017-12-31T01:45:55.920Z,92.75
2017-12-31T01:46:55.916Z,92.85
2017-12-31T01:47:55.918Z,92.85
2017-12-31T01:48:55.889Z,92.32
2017-12-31T01:49:55.878Z,92.61
2017-12-31T01:51:16.873Z,92.66
2017-12-31T01:51:55.851Z,92.46
2017-12-31T01:52:55.841Z,92.70
2017-12-31T01:53:55.834Z,92.66
2017-12-31T01:54:55.823Z,92.41
2017-12-31T01:55:55.810Z,92.61
2017-12-31T01:57:16.808Z,92.94
2017-12-31T01:57:55.785Z,92.41
2017-12-31T01:58:55.777Z,92.46
2017-12-31T01:59:55.769Z,92.66
2017-12-31T02:00:55.770Z,92.37
2017-12-31T02:01:55.740Z,92.27
2017-12-31T02:03:16.739Z,92.56
2017-12-31T02:03:55.721Z,92.46
2017-12-31T02:04:55.729Z,92.37
2017-12-31T02:05:55.701Z,92.56
2017-12-31T02:06:55.687Z,92.18
2017-12-31T02:07:55.677Z,92.56
2017-12-31T02:09:16.669Z,92.66
2017-12-31T02:09:55.659Z,92.46
2017-12-31T02:10:55.646Z,92.46
2017-12-31T02:11:55.634Z,92.66
2017-12-31T02:12:55.623Z,92.46
2017-12-31T02:13:55.609Z,92.27
2017-12-31T02:15:16.609Z,92.46
2017-12-31T02:15:55.614Z,92.27
2017-12-31T02:16:55.574Z,92.27
2017-12-31T02:17:55.581Z,92.46
2017-12-31T02:18:55.553Z,92.56
2017-12-31T02:19:55.543Z,92.94
2017-12-31T02:21:16.549Z,92.46
2017-12-31T02:21:55.520Z,92.46
2017-12-31T02:22:55.511Z,92.56
2017-12-31T02:23:55.500Z,92.66
2017-12-31T02:24:55.508Z,92.27
2017-12-31T02:25:55.477Z,92.27
2017-12-31T02:27:16.496Z,92.66
2017-12-31T02:27:55.474Z,92.66
2017-12-31T02:28:55.449Z,92.66
2017-12-31T02:29:55.430Z,91.99
2017-12-31T02:30:55.421Z,91.89
2017-12-31T02:31:55.410Z,91.89
2017-12-31T02:33:16.401Z,92.27
2017-12-31T02:33:55.386Z,92.41
2017-12-31T02:34:55.376Z,92.03
2017-12-31T02:35:55.366Z,92.41
2017-12-31T02:36:55.357Z,92.32
2017-12-31T02:37:55.344Z,91.85
2017-12-31T02:39:16.360Z,91.75
2017-12-31T02:39:55.323Z,91.66
2017-12-31T02:40:55.307Z,91.56
2017-12-31T02:41:55.300Z,91.66
2017-12-31T02:42:55.290Z,91.37
2017-12-31T02:43:55.279Z,91.37
2017-12-31T02:45:16.306Z,90.99
2017-12-31T02:45:55.254Z,90.89
2017-12-31T02:46:55.243Z,90.99
2017-12-31T02:47:55.237Z,91.18
2017-12-31T02:48:55.218Z,91.85
2017-12-31T02:49:55.212Z,90.61
2017-12-31T02:51:16.208Z,91.18
2017-12-31T02:51:55.186Z,91.47
2017-12-31T02:52:55.178Z,91.37
2017-12-31T02:53:55.172Z,91.08
2017-12-31T02:54:55.155Z,90.99
2017-12-31T02:55:55.146Z,90.89
2017-12-31T02:57:16.141Z,91.47
2017-12-31T02:57:55.123Z,90.89
2017-12-31T02:58:55.111Z,91.61
2017-12-31T02:59:55.104Z,90.89
2017-12-31T03:00:55.091Z,90.99
2017-12-31T03:01:55.104Z,91.18
2017-12-31T03:03:16.094Z,91.18
2017-12-31T03:03:55.058Z,90.70
2017-12-31T03:04:55.047Z,90.70
2017-12-31T03:05:55.038Z,90.99
2017-12-31T03:06:55.025Z,90.89
2017-12-31T03:07:55.016Z,90.99
2017-12-31T03:09:16.014Z,90.89
2017-12-31T03:09:54.996Z,90.04
2017-12-31T03:10:54.986Z,90.42
2017-12-31T03:11:54.976Z,90.52
2017-12-31T03:12:54.960Z,89.94
2017-12-31T03:13:54.967Z,89.85
2017-12-31T03:15:15.948Z,90.04
2017-12-31T03:15:54.930Z,89.85
2017-12-31T03:16:54.916Z,90.04
2017-12-31T03:17:54.908Z,89.75
2017-12-31T03:18:54.897Z,90.23
2017-12-31T03:19:54.884Z,90.14
2017-12-31T03:21:15.926Z,89.75
2017-12-31T03:21:54.864Z,89.66
2017-12-31T03:22:54.851Z,89.94
2017-12-31T03:23:54.841Z,89.56
2017-12-31T03:24:54.855Z,89.37
2017-12-31T03:25:54.820Z,89.56
2017-12-31T03:27:15.814Z,89.94
2017-12-31T03:27:54.794Z,89.85
2017-12-31T03:28:54.793Z,89.75
2017-12-31T03:29:54.780Z,89.37
2017-12-31T03:30:54.763Z,89.00
2017-12-31T03:31:54.751Z,89.56
2017-12-31T03:33:15.748Z,89.00
2017-12-31T03:33:54.731Z,89.56
2017-12-31T03:34:54.719Z,89.66
2017-12-31T03:35:54.711Z,89.00
2017-12-31T03:36:54.697Z,88.90
2017-12-31T03:37:54.707Z,88.90
2017-12-31T03:39:15.681Z,88.90
2017-12-31T03:39:54.716Z,89.00
2017-12-31T03:40:54.656Z,89.00
2017-12-31T03:41:54.646Z,88.61
2017-12-31T03:42:54.636Z,88.71
2017-12-31T03:43:54.621Z,89.00
2017-12-31T03:45:15.616Z,89.18
2017-12-31T03:45:54.603Z,89.09
2017-12-31T03:46:54.587Z,88.61
2017-12-31T03:47:54.590Z,88.61
2017-12-31T03:48:54.570Z,89.18
2017-12-31T03:49:54.560Z,88.33
2017-12-31T03:51:15.553Z,88.52
2017-12-31T03:51:54.537Z,88.61
2017-12-31T03:52:54.530Z,88.71
2017-12-31T03:53:54.519Z,88.52
2017-12-31T03:54:54.515Z,88.71
2017-12-31T03:55:54.492Z,88.04
2017-12-31T03:57:15.485Z,88.13
2017-12-31T03:57:54.470Z,87.85
2017-12-31T03:58:54.460Z,87.66
2017-12-31T03:59:54.450Z,88.13
2017-12-31T04:00:54.458Z,88.71
2017-12-31T04:01:54.430Z,88.80
2017-12-31T04:03:15.419Z,88.80
2017-12-31T04:03:54.406Z,88.61
2017-12-31T04:04:54.396Z,87.66
2017-12-31T04:05:54.386Z,87.95
2017-12-31T04:06:54.387Z,87.76
2017-12-31T04:07:54.360Z,88.80
2017-12-31T04:09:15.354Z,88.61
2017-12-31T04:09:54.354Z,88.71
2017-12-31T04:10:54.335Z,87.95
2017-12-31T04:11:54.317Z,88.23
2017-12-31T04:12:54.337Z,87.95
2017-12-31T04:13:54.296Z,87.95
2017-12-31T04:15:15.291Z,87.66
2017-12-31T04:15:54.275Z,87.85
2017-12-31T04:16:54.276Z,87.95
2017-12-31T04:17:54.253Z,88.80
2017-12-31T04:18:54.242Z,88.52
2017-12-31T04:19:54.229Z,88.71
2017-12-31T04:21:15.223Z,88.61
2017-12-31T04:21:54.207Z,88.80
2017-12-31T04:22:54.195Z,88.04
2017-12-31T04:23:54.186Z,88.61
2017-12-31T04:24:54.174Z,88.33
2017-12-31T04:25:54.162Z,88.42
2017-12-31T04:27:15.163Z,88.80
2017-12-31T04:27:54.139Z,88.42
2017-12-31T04:28:54.132Z,88.71
2017-12-31T04:29:54.143Z,88.90
2017-12-31T04:30:54.109Z,88.52
2017-12-31T04:31:54.097Z,88.67
2017-12-31T04:33:15.165Z,88.61
2017-12-31T04:33:54.092Z,88.38
2017-12-31T04:34:54.067Z,88.47
2017-12-31T04:35:54.058Z,88.61
2017-12-31T04:36:54.041Z,88.61
2017-12-31T04:37:54.048Z,88.61
2017-12-31T04:39:15.108Z,88.80
2017-12-31T04:39:54.011Z,88.71
2017-12-31T04:40:53.997Z,88.61
2017-12-31T04:41:53.990Z,88.61
2017-12-31T04:42:53.981Z,88.61
2017-12-31T04:43:53.997Z,88.71
2017-12-31T04:45:14.972Z,88.71
2017-12-31T04:45:53.948Z,88.52
2017-12-31T04:46:53.937Z,88.61
2017-12-31T04:47:53.920Z,88.61
2017-12-31T04:48:53.914Z,88.71
2017-12-31T04:49:53.899Z,88.61
2017-12-31T04:51:14.910Z,88.52
2017-12-31T04:51:53.879Z,88.52
2017-12-31T04:52:53.870Z,88.80
2017-12-31T04:53:53.865Z,88.71
2017-12-31T04:54:53.866Z,88.61
2017-12-31T04:55:53.836Z,88.52
2017-12-31T04:57:14.927Z,88.71
2017-12-31T04:57:53.815Z,88.23
2017-12-31T04:58:53.800Z,88.52
2017-12-31T04:59:53.790Z,88.80
2017-12-31T05:00:53.782Z,88.42
2017-12-31T05:01:53.776Z,88.42
2017-12-31T05:03:14.865Z,88.33
2017-12-31T05:03:53.749Z,89.00
2017-12-31T05:04:53.753Z,89.28
2017-12-31T05:05:53.724Z,89.04
2017-12-31T05:06:53.714Z,89.23
2017-12-31T05:07:53.700Z,89.00
2017-12-31T05:09:14.698Z,89.14
2017-12-31T05:09:53.683Z,89.28
2017-12-31T05:10:53.704Z,88.85
2017-12-31T05:11:53.661Z,89.23
2017-12-31T05:12:53.644Z,89.52
2017-12-31T05:13:53.635Z,89.33
2017-12-31T05:15:14.629Z,89.42
2017-12-31T05:15:53.622Z,89.14
2017-12-31T05:16:53.619Z,89.61
2017-12-31T05:17:53.591Z,89.42
2017-12-31T05:18:53.578Z,89.04
2017-12-31T05:19:53.567Z,89.52
2017-12-31T05:21:14.558Z,89.52
2017-12-31T05:21:53.544Z,89.52
2017-12-31T05:22:53.536Z,89.52
2017-12-31T05:23:53.521Z,89.90
2017-12-31T05:24:53.510Z,89.42
2017-12-31T05:25:53.498Z,90.37
2017-12-31T05:27:14.497Z,89.71
2017-12-31T05:27:53.504Z,89.90
2017-12-31T05:28:53.466Z,89.33
2017-12-31T05:29:53.453Z,90.28
2017-12-31T05:30:53.444Z,90.37
2017-12-31T05:31:53.447Z,90.09
2017-12-31T05:33:14.427Z,89.90
2017-12-31T05:33:53.420Z,89.61
2017-12-31T05:34:53.410Z,89.42
2017-12-31T05:35:53.406Z,89.61
2017-12-31T05:36:53.376Z,90.09
2017-12-31T05:37:53.367Z,90.09
2017-12-31T05:39:14.370Z,90.28
2017-12-31T05:39:53.341Z,90.09
2017-12-31T05:40:53.340Z,89.90
2017-12-31T05:41:53.320Z,90.19
2017-12-31T05:42:53.309Z,90.19
2017-12-31T05:43:53.299Z,90.00
2017-12-31T05:45:14.292Z,89.90
2017-12-31T05:45:53.280Z,89.80
2017-12-31T05:46:53.291Z,89.52
2017-12-31T05:47:53.250Z,90.09
2017-12-31T05:48:53.242Z,89.71
2017-12-31T05:49:53.230Z,89.90
2017-12-31T05:51:14.223Z,89.90
2017-12-31T05:51:53.209Z,90.09
2017-12-31T05:52:53.198Z,90.00
2017-12-31T05:53:53.191Z,90.09
2017-12-31T05:54:53.175Z,90.09
2017-12-31T05:55:53.165Z,89.71
2017-12-31T05:57:14.158Z,90.00
2017-12-31T05:57:53.143Z,89.90
2017-12-31T05:58:53.136Z,90.09
2017-12-31T05:59:53.117Z,89.80
2017-12-31T06:00:53.109Z,89.33
2017-12-31T06:01:53.105Z,89.42
2017-12-31T06:03:14.114Z,89.14
2017-12-31T06:03:53.072Z,89.23
2017-12-31T06:04:53.059Z,88.76
2017-12-31T06:05:53.051Z,89.23
2017-12-31T06:06:53.044Z,88.85
2017-12-31T06:07:53.028Z,89.42
2017-12-31T06:09:14.020Z,89.42
2017-12-31T06:09:53.007Z,89.04
2017-12-31T06:10:52.997Z,89.14
2017-12-31T06:11:52.981Z,89.33
2017-12-31T06:12:52.976Z,89.33
2017-12-31T06:13:52.979Z,89.33
2017-12-31T06:15:13.961Z,89.14
2017-12-31T06:15:52.939Z,89.14
2017-12-31T06:16:52.929Z,89.80
2017-12-31T06:17:52.918Z,89.33
2017-12-31T06:18:52.910Z,89.42
2017-12-31T06:19:52.895Z,89.33
2017-12-31T06:21:13.894Z,89.71
2017-12-31T06:21:52.869Z,89.61
2017-12-31T06:22:52.864Z,89.42
2017-12-31T06:23:52.861Z,90.09
2017-12-31T06:24:52.868Z,89.90
2017-12-31T06:25:52.826Z,90.19
2017-12-31T06:27:13.816Z,89.90
2017-12-31T06:27:52.801Z,90.28
2017-12-31T06:28:52.793Z,90.28
2017-12-31T06:29:52.778Z,89.90
2017-12-31T06:30:52.787Z,89.61
2017-12-31T06:31:52.753Z,89.33
2017-12-31T06:33:13.762Z,89.52
2017-12-31T06:33:52.734Z,90.28
2017-12-31T06:34:52.722Z,90.09
2017-12-31T06:35:52.710Z,90.19
2017-12-31T06:36:52.697Z,89.95
2017-12-31T06:37:52.685Z,89.90
2017-12-31T06:39:13.679Z,90.00
2017-12-31T06:39:52.659Z,89.95
2017-12-31T06:40:52.652Z,89.67
2017-12-31T06:41:52.635Z,89.86
2017-12-31T06:42:52.625Z,90.05
2017-12-31T06:43:52.613Z,90.05
2017-12-31T06:45:13.605Z,90.05
2017-12-31T06:45:52.592Z,90.71
2017-12-31T06:46:52.580Z,90.90
2017-12-31T06:47:52.577Z,90.90
2017-12-31T06:48:52.556Z,90.71
2017-12-31T06:49:52.546Z,90.52
2017-12-31T06:51:13.535Z,90.42
2017-12-31T06:51:52.520Z,90.61
2017-12-31T06:52:52.508Z,90.71
2017-12-31T06:53:52.516Z,91.09
2017-12-31T06:54:52.488Z,90.80
2017-12-31T06:55:52.473Z,90.80
2017-12-31T06:57:13.477Z,90.80
2017-12-31T06:57:52.452Z,91.47
2017-12-31T06:58:52.437Z,90.90
2017-12-31T06:59:52.423Z,90.61
2017-12-31T07:00:52.414Z,91.47
2017-12-31T07:01:52.402Z,90.90
2017-12-31T07:03:13.399Z,91.09
2017-12-31T07:03:52.382Z,90.90
2017-12-31T07:04:52.368Z,90.71
2017-12-31T07:05:52.351Z,91.09
2017-12-31T07:06:52.340Z,91.09
2017-12-31T07:07:52.329Z,90.90
2017-12-31T07:09:13.323Z,90.99
2017-12-31T07:09:52.312Z,90.99
2017-12-31T07:10:52.296Z,91.19
2017-12-31T07:11:52.279Z,90.99
2017-12-31T07:12:52.269Z,91.09
2017-12-31T07:13:52.261Z,91.09
2017-12-31T07:15:13.251Z,91.28
2017-12-31T07:15:52.249Z,91.09
2017-12-31T07:16:52.220Z,90.99
2017-12-31T07:17:52.210Z,91.19
2017-12-31T07:18:52.201Z,91.19
2017-12-31T07:19:52.187Z,90.90
2017-12-31T07:21:13.263Z,90.71
2017-12-31T07:21:52.162Z,91.09
2017-12-31T07:22:52.160Z,90.61
2017-12-31T07:23:52.139Z,90.99
2017-12-31T07:24:52.127Z,90.99
2017-12-31T07:25:52.113Z,91.47
2017-12-31T07:27:13.104Z,90.99
2017-12-31T07:27:52.088Z,91.09
2017-12-31T07:28:52.074Z,90.80
2017-12-31T07:29:52.062Z,90.80
2017-12-31T07:30:52.064Z,91.19
2017-12-31T07:31:52.046Z,91.28
2017-12-31T07:33:13.029Z,90.95
2017-12-31T07:33:52.013Z,90.99
2017-12-31T07:34:52.000Z,91.28
2017-12-31T07:35:51.992Z,90.80
2017-12-31T07:36:51.977Z,90.99
2017-12-31T07:37:51.969Z,91.19
2017-12-31T07:39:12.957Z,90.61
2017-12-31T07:39:51.943Z,90.61
2017-12-31T07:40:51.929Z,90.61
2017-12-31T07:41:51.918Z,90.90
2017-12-31T07:42:51.907Z,90.52
2017-12-31T07:43:51.896Z,90.71
2017-12-31T07:45:12.891Z,90.71
2017-12-31T07:45:51.874Z,90.23
2017-12-31T07:46:51.860Z,90.14
2017-12-31T07:47:51.872Z,90.14
2017-12-31T07:48:51.835Z,90.05
2017-12-31T07:49:51.835Z,89.28
2017-12-31T07:51:12.813Z,89.28
2017-12-31T07:51:51.801Z,89.47
2017-12-31T07:52:51.796Z,89.19
2017-12-31T07:53:51.782Z,88.95
2017-12-31T07:54:51.771Z,88.76
2017-12-31T07:55:51.782Z,87.52
2017-12-31T07:57:12.761Z,86.76
2017-12-31T07:57:51.750Z,86.52
2017-12-31T07:58:51.743Z,85.91
2017-12-31T07:59:51.733Z,85.66
2017-12-31T08:00:51.730Z,85.00
2017-12-31T08:01:51.718Z,85.19
2017-12-31T08:03:12.725Z,85.38
2017-12-31T08:03:51.710Z,85.00
2017-12-31T08:04:51.700Z,84.33
2017-12-31T08:05:51.694Z,83.67
2017-12-31T08:06:51.688Z,82.95
2017-12-31T08:07:51.685Z,83.23
2017-12-31T08:09:12.696Z,82.28
2017-12-31T08:09:51.677Z,81.43
2017-12-31T08:10:51.694Z,81.24
2017-12-31T08:11:51.685Z,80.61
2017-12-31T08:12:51.659Z,81.09
2017-12-31T08:13:51.659Z,81.28
2017-12-31T08:15:12.658Z,80.33
2017-12-31T08:15:51.650Z,80.71
2017-12-31T08:16:51.648Z,79.94
2017-12-31T08:17:51.693Z,80.13
2017-12-31T08:18:51.656Z,79.75
2017-12-31T08:19:51.640Z,78.71
2017-12-31T08:21:12.640Z,78.52
2017-12-31T08:21:51.626Z,78.56
2017-12-31T08:22:51.620Z,78.17
2017-12-31T08:23:51.624Z,78.17
2017-12-31T08:24:51.615Z,76.65
2017-12-31T08:25:51.610Z,75.93
2017-12-31T08:27:12.619Z,75.16
2017-12-31T08:27:51.608Z,74.50
2017-12-31T08:28:51.622Z,73.49
2017-12-31T08:29:51.604Z,71.91
2017-12-31T08:30:51.604Z,70.67
2017-12-31T08:31:51.607Z,70.13
2017-12-31T08:33:12.649Z,68.82
2017-12-31T08:33:51.598Z,65.71
2017-12-31T08:34:51.594Z,64.85
2017-12-31T08:35:51.590Z,63.00
2017-12-31T08:36:51.594Z,60.74
2017-12-31T08:37:51.587Z,59.49
2017-12-31T08:39:12.594Z,57.99
2017-12-31T08:39:51.589Z,57.87
2017-12-31T08:40:51.596Z,57.77
2017-12-31T08:41:51.604Z,57.06
2017-12-31T08:42:51.581Z,54.79
2017-12-31T08:43:51.577Z,54.38
2017-12-31T08:45:12.585Z,53.48
2017-12-31T08:45:51.578Z,52.62
2017-12-31T08:46:51.572Z,52.36
2017-12-31T08:47:51.569Z,51.40
2017-12-31T08:48:51.566Z,50.34
2017-12-31T08:49:51.563Z,50.34
2017-12-31T08:51:12.580Z,52.37
2017-12-31T08:51:51.552Z,56.95
2017-12-31T08:52:51.569Z,62.43
2017-12-31T08:53:51.556Z,65.07
2017-12-31T08:54:51.542Z,66.12
2017-12-31T08:55:51.529Z,65.74
2017-12-31T08:57:12.527Z,65.74
2017-12-31T08:57:51.520Z,65.96
2017-12-31T08:58:51.513Z,66.12
2017-12-31T08:59:51.498Z,65.39
2017-12-31T09:00:51.497Z,63.86
2017-12-31T09:01:51.501Z,64.15
2017-12-31T09:03:12.484Z,64.05
2017-12-31T09:03:51.473Z,65.58
2017-12-31T09:04:51.466Z,64.78
2017-12-31T09:05:51.456Z,64.97
2017-12-31T09:06:51.447Z,65.80
2017-12-31T09:07:51.442Z,66.91
2017-12-31T09:09:12.441Z,67.96
2017-12-31T09:09:51.425Z,69.29
2017-12-31T09:10:51.483Z,68.78
2017-12-31T09:11:51.480Z,69.93
2017-12-31T09:12:51.399Z,69.64
2017-12-31T09:13:51.400Z,70.21
2017-12-31T09:15:12.438Z,68.98
2017-12-31T09:15:51.392Z,68.98
2017-12-31T09:16:51.372Z,68.69
2017-12-31T09:17:51.411Z,68.78
2017-12-31T09:18:51.366Z,69.17
2017-12-31T09:19:51.366Z,68.98
2017-12-31T09:21:12.391Z,68.59
2017-12-31T09:21:51.334Z,68.40
2017-12-31T09:22:51.330Z,67.93
2017-12-31T09:23:51.307Z,68.21
2017-12-31T09:24:51.360Z,67.64
2017-12-31T09:25:51.323Z,68.50
2017-12-31T09:27:12.334Z,68.40
2017-12-31T09:27:51.280Z,68.69
2017-12-31T09:28:51.280Z,67.83
2017-12-31T09:29:51.280Z,68.34
2017-12-31T09:30:51.297Z,67.00
2017-12-31T09:31:51.292Z,66.53
2017-12-31T09:33:12.292Z,67.29
2017-12-31T09:33:51.215Z,67.29
2017-12-31T09:34:51.213Z,66.82
2017-12-31T09:35:51.265Z,66.34
2017-12-31T09:36:51.221Z,66.53
2017-12-31T09:37:51.229Z,66.11
2017-12-31T09:39:12.233Z,66.78
2017-12-31T09:39:51.158Z,66.78
2017-12-31T09:40:51.153Z,66.78
2017-12-31T09:41:51.160Z,66.59
2017-12-31T09:42:51.160Z,66.05
2017-12-31T09:43:51.170Z,66.05
2017-12-31T09:45:12.169Z,65.96
2017-12-31T09:45:51.187Z,65.73
2017-12-31T09:46:51.087Z,65.58
2017-12-31T09:47:51.711Z,65.86
2017-12-31T09:48:51.090Z,65.07
2017-12-31T09:49:51.091Z,65.58
2017-12-31T09:51:12.110Z,65.77
2017-12-31T09:51:51.075Z,65.86
2017-12-31T09:52:51.033Z,65.39
2017-12-31T09:53:51.030Z,64.62
2017-12-31T09:54:51.577Z,65.10
2017-12-31T09:55:51.045Z,65.39
2017-12-31T09:57:12.016Z,64.72
2017-12-31T09:57:50.991Z,64.81
2017-12-31T09:58:51.020Z,64.37
2017-12-31T09:59:50.969Z,63.80
2017-12-31T10:00:50.963Z,64.18
2017-12-31T10:01:50.973Z,64.09
2017-12-31T10:03:11.979Z,63.89
2017-12-31T10:03:50.959Z,63.70
2017-12-31T10:04:50.973Z,64.02
2017-12-31T10:05:50.950Z,62.68
2017-12-31T10:06:50.916Z,61.73
2017-12-31T10:07:50.924Z,61.44
2017-12-31T10:09:11.930Z,62.27
2017-12-31T10:09:50.937Z,63.89
2017-12-31T10:10:50.938Z,63.60
2017-12-31T10:11:50.947Z,63.99
2017-12-31T10:12:50.931Z,63.51
2017-12-31T10:13:50.862Z,64.09
2017-12-31T10:15:11.860Z,62.94
2017-12-31T10:15:50.859Z,64.75
2017-12-31T10:16:50.831Z,64.85
2017-12-31T10:17:50.836Z,65.10
2017-12-31T10:18:50.839Z,64.53
2017-12-31T10:19:50.792Z,64.81
2017-12-31T10:21:11.794Z,65.10
2017-12-31T10:21:50.805Z,65.67
2017-12-31T10:22:50.818Z,66.44
2017-12-31T10:23:50.821Z,66.34
2017-12-31T10:24:50.780Z,66.02
2017-12-31T10:25:50.744Z,65.73
2017-12-31T10:27:11.809Z,65.64
2017-12-31T10:27:50.726Z,66.59
2017-12-31T10:28:50.748Z,65.64
2017-12-31T10:29:50.752Z,65.92
2017-12-31T10:30:50.755Z,66.88
2017-12-31T10:31:50.678Z,67.26
2017-12-31T10:33:11.671Z,66.69
2017-12-31T10:33:50.686Z,66.97
2017-12-31T10:34:50.632Z,66.78
2017-12-31T10:35:50.686Z,66.50
2017-12-31T10:36:50.641Z,65.55
2017-12-31T10:37:50.642Z,65.64
2017-12-31T10:39:11.606Z,66.21
2017-12-31T10:39:50.581Z,66.11
2017-12-31T10:40:50.628Z,65.83
2017-12-31T10:41:50.627Z,66.21
2017-12-31T10:42:50.549Z,67.07
2017-12-31T10:43:50.542Z,66.97
2017-12-31T10:45:11.543Z,67.83
2017-12-31T10:45:50.539Z,67.35
2017-12-31T10:46:50.545Z,66.44
2017-12-31T10:47:50.513Z,66.53
2017-12-31T10:48:50.622Z,66.21
2017-12-31T10:49:50.481Z,66.78
2017-12-31T10:51:11.482Z,67.29
2017-12-31T10:51:50.456Z,66.63
2017-12-31T10:52:50.447Z,66.24
2017-12-31T10:53:50.501Z,66.72
2017-12-31T10:54:50.493Z,67.00
2017-12-31T10:55:50.449Z,65.96
2017-12-31T10:57:11.418Z,65.77
2017-12-31T10:57:50.396Z,66.72
2017-12-31T10:58:50.436Z,67.10
2017-12-31T10:59:50.393Z,67.10
2017-12-31T11:00:50.384Z,66.53
2017-12-31T11:01:50.379Z,66.72
2017-12-31T11:03:12.087Z,65.77
2017-12-31T11:03:50.372Z,64.62
2017-12-31T11:04:50.368Z,64.28
2017-12-31T11:05:50.384Z,64.65
2017-12-31T11:06:50.391Z,64.65
2017-12-31T11:07:50.388Z,63.89
2017-12-31T11:09:11.431Z,63.99
2017-12-31T11:09:50.286Z,63.89
2017-12-31T11:10:50.309Z,64.94
2017-12-31T11:11:50.314Z,64.47
2017-12-31T11:12:50.323Z,63.04
2017-12-31T11:13:50.332Z,63.32
2017-12-31T11:15:11.282Z,63.32
2017-12-31T11:15:50.220Z,63.23
2017-12-31T11:16:50.210Z,64.18
2017-12-31T11:17:50.212Z,63.26
2017-12-31T11:18:50.190Z,64.12
2017-12-31T11:19:50.182Z,63.16
2017-12-31T11:21:11.256Z,63.35
2017-12-31T11:21:50.186Z,63.00
2017-12-31T11:22:50.156Z,62.34
2017-12-31T11:23:50.153Z,61.76
2017-12-31T11:24:50.137Z,61.19
2017-12-31T11:25:50.153Z,61.29
2017-12-31T11:27:11.129Z,61.29
2017-12-31T11:27:50.116Z,60.61
2017-12-31T11:28:50.106Z,61.10
2017-12-31T11:29:50.103Z,61.29
2017-12-31T11:30:50.092Z,61.47
2017-12-31T11:31:50.092Z,60.71
2017-12-31T11:33:11.083Z,60.61
2017-12-31T11:33:50.069Z,61.19
2017-12-31T11:34:50.057Z,60.81
2017-12-31T11:35:50.065Z,60.52
2017-12-31T11:36:50.037Z,60.33
2017-12-31T11:37:50.042Z,59.95
2017-12-31T11:39:11.032Z,59.31
2017-12-31T11:39:50.037Z,58.73
2017-12-31T11:40:50.009Z,58.73
2017-12-31T11:41:50.014Z,57.78
2017-12-31T11:42:49.992Z,57.97
2017-12-31T11:43:49.995Z,58.45
2017-12-31T11:45:11.013Z,57.97
2017-12-31T11:45:49.970Z,57.97
2017-12-31T11:46:49.961Z,58.54
2017-12-31T11:47:49.958Z,59.88
2017-12-31T11:48:49.950Z,59.78
2017-12-31T11:49:49.937Z,59.41
2017-12-31T11:51:10.956Z,59.69
2017-12-31T11:51:49.921Z,60.36
2017-12-31T11:52:49.914Z,60.07
2017-12-31T11:53:49.905Z,59.69
2017-12-31T11:54:49.902Z,60.07
2017-12-31T11:55:49.889Z,60.84
2017-12-31T11:57:10.888Z,59.41
2017-12-31T11:57:49.877Z,58.83
2017-12-31T11:58:49.868Z,59.78
2017-12-31T11:59:49.855Z,59.88
2017-12-31T12:00:49.851Z,58.64
2017-12-31T12:01:49.896Z,58.83
2017-12-31T12:03:10.949Z,57.87
2017-12-31T12:03:49.870Z,57.21
2017-12-31T12:04:49.862Z,56.82
2017-12-31T12:05:49.874Z,57.02
2017-12-31T12:06:49.867Z,57.50
2017-12-31T12:07:49.878Z,58.04
2017-12-31T12:09:10.891Z,58.83
2017-12-31T12:09:49.808Z,58.83
2017-12-31T12:10:49.826Z,57.97
2017-12-31T12:11:49.810Z,57.21
2017-12-31T12:12:49.811Z,57.18
2017-12-31T12:13:49.816Z,57.56
2017-12-31T12:15:10.831Z,58.04
2017-12-31T12:15:49.823Z,58.51
2017-12-31T12:16:49.727Z,58.99
2017-12-31T12:17:49.725Z,59.47
2017-12-31T12:18:49.729Z,58.80
2017-12-31T12:19:49.739Z,58.80
2017-12-31T12:21:10.726Z,59.19
2017-12-31T12:21:49.715Z,59.25
2017-12-31T12:22:49.720Z,59.76
2017-12-31T12:23:49.674Z,58.97
2017-12-31T12:24:49.655Z,59.56
2017-12-31T12:25:49.660Z,59.38
2017-12-31T12:27:10.671Z,60.11
2017-12-31T12:27:49.619Z,60.04
2017-12-31T12:28:49.671Z,58.77
2017-12-31T12:29:49.608Z,58.99
2017-12-31T12:30:49.595Z,59.85
2017-12-31T12:31:49.608Z,60.71
2017-12-31T12:33:10.589Z,59.73
2017-12-31T12:33:49.613Z,59.66
2017-12-31T12:34:49.563Z,59.19
2017-12-31T12:35:49.556Z,59.95
2017-12-31T12:36:49.540Z,60.52
2017-12-31T12:37:49.542Z,60.71
2017-12-31T12:39:10.531Z,59.85
2017-12-31T12:39:49.532Z,59.66
2017-12-31T12:40:49.561Z,59.73
2017-12-31T12:41:49.567Z,58.97
2017-12-31T12:42:49.486Z,58.77
2017-12-31T12:43:49.480Z,58.48
2017-12-31T12:45:10.494Z,59.53
2017-12-31T12:45:49.487Z,59.63
2017-12-31T12:46:49.450Z,60.21
2017-12-31T12:47:49.442Z,59.44
2017-12-31T12:48:49.431Z,59.34
2017-12-31T12:49:49.436Z,59.44
2017-12-31T12:51:10.425Z,59.44
2017-12-31T12:51:49.402Z,59.25
2017-12-31T12:52:49.398Z,59.16